createdAt,value
2017-09-12T00:02:02.033Z,2.60
2017-09-12T00:04:29.616Z,2.60
2017-09-12T00:06:57.212Z,2.70
2017-09-12T00:09:25.604Z,3.73
2017-09-12T00:11:53.951Z,3.10
2017-09-12T00:14:21.515Z,2.33
2017-09-12T00:16:49.132Z,2.27
2017-09-12T00:19:16.707Z,3.80
2017-09-12T00:21:44.265Z,4.10
2017-09-12T00:24:11.870Z,2.40
2017-09-12T00:26:39.453Z,3.33
2017-09-12T00:29:07.792Z,3.17
2017-09-12T00:31:35.378Z,2.87
2017-09-12T00:34:03.872Z,2.27
2017-09-12T00:36:32.227Z,3.10
2017-09-12T00:38:59.821Z,3.53
2017-09-12T00:41:28.169Z,2.53
2017-09-12T00:43:55.758Z,3.00
2017-09-12T00:46:23.349Z,3.20
2017-09-12T00:48:50.939Z,3.73
2017-09-12T00:51:18.538Z,3.37
2017-09-12T00:53:46.151Z,2.73
2017-09-12T00:56:13.736Z,2.80
2017-09-12T00:58:41.295Z,3.20
2017-09-12T01:01:08.918Z,2.70
2017-09-12T01:03:37.245Z,3.33
2017-09-12T01:06:04.819Z,2.80
2017-09-12T01:08:32.414Z,2.70
2017-09-12T01:11:00.752Z,3.37
2017-09-12T01:13:28.331Z,3.30
2017-09-12T01:15:55.950Z,3.57
2017-09-12T01:18:23.513Z,3.00
2017-09-12T01:20:51.076Z,3.50
2017-09-12T01:23:18.667Z,3.20
2017-09-12T01:25:46.261Z,3.50
2017-09-12T01:28:14.598Z,3.57
2017-09-12T01:30:42.202Z,3.30
2017-09-12T01:33:10.545Z,2.80
2017-09-12T01:35:38.132Z,3.30
2017-09-12T01:38:05.740Z,2.40
2017-09-12T01:40:33.337Z,2.60
2017-09-12T01:43:00.948Z,2.40
2017-09-12T01:45:29.276Z,3.47
2017-09-12T01:47:56.865Z,3.10
2017-09-12T01:50:24.479Z,3.17
2017-09-12T01:52:52.058Z,3.27
2017-09-12T01:55:19.633Z,2.03
2017-09-12T01:57:47.245Z,3.13
2017-09-12T02:00:14.816Z,3.00
2017-09-12T02:02:42.404Z,2.80
2017-09-12T02:05:10.027Z,3.17
2017-09-12T02:07:38.379Z,3.70
2017-09-12T02:10:05.955Z,3.23
2017-09-12T02:12:34.336Z,3.50
2017-09-12T02:15:01.912Z,2.20
2017-09-12T02:17:29.494Z,3.20
2017-09-12T02:19:57.118Z,2.83
2017-09-12T02:22:25.450Z,3.37
2017-09-12T02:24:53.025Z,2.53
2017-09-12T02:27:20.610Z,2.67
2017-09-12T02:29:48.167Z,2.83
2017-09-12T02:32:15.698Z,2.90
2017-09-12T02:34:43.280Z,2.50
2017-09-12T02:37:10.828Z,3.43
2017-09-12T02:39:38.357Z,3.90
2017-09-12T02:42:06.696Z,3.13
2017-09-12T02:44:34.250Z,2.53
2017-09-12T02:47:01.785Z,3.60
2017-09-12T02:49:29.377Z,1.90
2017-09-12T02:51:56.924Z,2.13
2017-09-12T02:54:24.468Z,2.10
2017-09-12T02:56:52.049Z,2.70
2017-09-12T02:59:19.611Z,2.30
2017-09-12T03:01:47.162Z,2.53
2017-09-12T03:04:14.747Z,2.07
2017-09-12T03:06:42.304Z,2.13
2017-09-12T03:09:09.852Z,2.30
2017-09-12T03:11:37.409Z,2.03
2017-09-12T03:14:04.953Z,2.33
2017-09-12T03:16:32.489Z,2.53
2017-09-12T03:19:00.840Z,2.33
2017-09-12T03:21:28.395Z,2.80
2017-09-12T03:23:55.948Z,2.80
2017-09-12T03:26:23.513Z,2.53
2017-09-12T03:28:51.065Z,2.63
2017-09-12T03:31:18.610Z,2.80
2017-09-12T03:33:46.173Z,2.33
2017-09-12T03:36:13.717Z,2.60
2017-09-12T03:38:41.273Z,3.50
2017-09-12T03:41:09.614Z,2.83
2017-09-12T03:43:37.141Z,3.17
2017-09-12T03:46:04.711Z,3.50
2017-09-12T03:48:32.255Z,2.90
2017-09-12T03:50:59.804Z,2.20
2017-09-12T03:53:27.375Z,2.67
2017-09-12T03:55:54.923Z,2.83
2017-09-12T03:58:23.260Z,2.80
2017-09-12T04:00:50.910Z,2.57
2017-09-12T04:03:18.490Z,2.60
2017-09-12T04:05:46.042Z,2.30
2017-09-12T04:08:13.625Z,2.37
2017-09-12T04:10:41.189Z,2.60
2017-09-12T04:13:08.724Z,3.00
2017-09-12T04:15:36.306Z,3.50
2017-09-12T04:18:03.864Z,2.43
2017-09-12T04:20:31.397Z,3.00
2017-09-12T04:22:58.976Z,3.47
2017-09-12T04:25:26.522Z,3.73
2017-09-12T04:27:54.065Z,5.37
2017-09-12T04:30:21.633Z,3.43
2017-09-12T04:32:49.171Z,3.70
2017-09-12T04:35:17.465Z,3.37
2017-09-12T04:37:45.072Z,4.43
2017-09-12T04:40:12.610Z,3.80
2017-09-12T04:42:40.163Z,4.50
2017-09-12T04:45:07.746Z,6.00
2017-09-12T04:47:35.307Z,5.00
2017-09-12T04:50:02.871Z,6.60
2017-09-12T04:52:30.464Z,5.17
2017-09-12T04:54:58.024Z,5.97
2017-09-12T04:57:25.581Z,6.13
2017-09-12T04:59:53.180Z,6.13
2017-09-12T05:02:20.733Z,6.80
2017-09-12T05:04:49.032Z,6.30
2017-09-12T05:07:16.592Z,6.30
2017-09-12T05:09:44.156Z,7.20
2017-09-12T05:12:11.680Z,6.53
2017-09-12T05:14:40.014Z,5.67
2017-09-12T05:17:07.576Z,6.83
2017-09-12T05:19:35.129Z,6.30
2017-09-12T05:22:02.699Z,6.97
2017-09-12T05:24:30.240Z,7.00
2017-09-12T05:26:57.782Z,6.87
2017-09-12T05:29:26.123Z,6.83
2017-09-12T05:31:53.662Z,7.10
2017-09-12T05:34:21.198Z,7.30
2017-09-12T05:36:48.829Z,7.30
2017-09-12T05:39:16.371Z,6.67
2017-09-12T05:41:43.920Z,6.20
2017-09-12T05:44:11.492Z,6.80
2017-09-12T05:46:39.031Z,5.57
2017-09-12T05:49:06.617Z,6.03
2017-09-12T05:51:34.165Z,5.10
2017-09-12T05:54:01.723Z,6.23
2017-09-12T05:56:29.289Z,5.40
2017-09-12T05:58:56.837Z,5.20
2017-09-12T06:01:24.379Z,5.80
2017-09-12T06:03:51.968Z,6.27
2017-09-12T06:06:19.506Z,7.70
2017-09-12T06:08:47.059Z,6.17
2017-09-12T06:11:14.662Z,7.20
2017-09-12T06:13:42.197Z,6.53
2017-09-12T06:16:09.737Z,8.40
2017-09-12T06:18:38.069Z,8.00
2017-09-12T06:21:05.625Z,7.40
2017-09-12T06:23:33.170Z,8.30
2017-09-12T06:26:00.736Z,8.73
2017-09-12T06:28:28.273Z,9.50
2017-09-12T06:30:55.833Z,9.80
2017-09-12T06:33:23.437Z,9.83
2017-09-12T06:35:50.983Z,9.83
2017-09-12T06:38:18.686Z,9.67
2017-09-12T06:40:46.441Z,9.47
2017-09-12T06:43:14.238Z,9.63
2017-09-12T06:45:42.604Z,10.20
2017-09-12T06:48:10.400Z,11.03
2017-09-12T06:50:38.129Z,9.60
2017-09-12T06:53:05.895Z,9.30
2017-09-12T06:55:33.563Z,9.83
2017-09-12T06:58:01.245Z,9.23
2017-09-12T07:00:29.692Z,9.27
2017-09-12T07:02:57.418Z,8.50
2017-09-12T07:05:25.141Z,9.30
2017-09-12T07:07:52.834Z,9.27
2017-09-12T07:10:21.201Z,8.80
2017-09-12T07:12:49.524Z,9.70
2017-09-12T07:15:17.112Z,8.70
2017-09-12T07:17:44.672Z,8.27
2017-09-12T07:20:12.235Z,8.60
2017-09-12T07:22:39.797Z,8.13
2017-09-12T07:25:07.358Z,7.47
2017-09-12T07:27:34.945Z,8.23
2017-09-12T07:30:02.526Z,8.27
2017-09-12T07:32:30.861Z,7.20
2017-09-12T07:34:58.400Z,6.57
2017-09-12T07:37:25.980Z,6.57
2017-09-12T07:39:54.300Z,6.43
2017-09-12T07:42:22.604Z,6.00
2017-09-12T07:44:50.174Z,5.50
2017-09-12T07:47:17.752Z,5.40
2017-09-12T07:49:45.297Z,5.90
2017-09-12T07:52:12.893Z,5.77
2017-09-12T07:54:40.444Z,5.57
2017-09-12T07:57:09.122Z,4.70
2017-09-12T07:59:36.718Z,4.90
2017-09-12T08:02:04.394Z,5.10
2017-09-12T08:04:32.723Z,4.70
2017-09-12T08:07:00.304Z,4.70
2017-09-12T08:09:27.874Z,6.37
2017-09-12T08:11:55.484Z,5.17
2017-09-12T08:14:23.836Z,5.90
2017-09-12T08:16:51.373Z,5.17
2017-09-12T08:19:18.929Z,5.30
2017-09-12T08:21:46.500Z,4.93
2017-09-12T08:24:14.044Z,4.43
2017-09-12T08:26:41.606Z,5.23
2017-09-12T08:29:09.172Z,4.60
2017-09-12T08:31:36.719Z,3.73
2017-09-12T08:34:04.262Z,4.37
2017-09-12T08:36:32.616Z,3.90
2017-09-12T08:39:00.164Z,3.43
2017-09-12T08:41:27.732Z,4.00
2017-09-12T08:43:55.312Z,3.63
2017-09-12T08:46:23.632Z,4.37
2017-09-12T08:48:51.203Z,4.07
2017-09-12T08:51:18.784Z,3.97
2017-09-12T08:53:46.320Z,3.70
2017-09-12T08:56:13.886Z,3.73
2017-09-12T08:58:41.428Z,3.87
2017-09-12T09:01:08.985Z,4.30
2017-09-12T09:03:36.546Z,4.30
2017-09-12T09:06:04.115Z,4.40
2017-09-12T09:08:31.656Z,4.33
2017-09-12T09:10:59.220Z,4.10
2017-09-12T09:13:27.522Z,3.87
2017-09-12T09:15:55.083Z,5.30
2017-09-12T09:18:22.658Z,3.87
2017-09-12T09:20:50.187Z,3.50
2017-09-12T09:23:18.514Z,3.10
2017-09-12T09:25:46.117Z,3.70
2017-09-12T09:28:13.644Z,4.10
2017-09-12T09:30:41.201Z,3.40
2017-09-12T09:33:08.749Z,3.73
2017-09-12T09:35:36.292Z,3.80
2017-09-12T09:38:03.837Z,3.93
2017-09-12T09:40:32.180Z,4.03
2017-09-12T09:42:59.824Z,3.73
2017-09-12T09:45:27.379Z,3.50
2017-09-12T09:47:54.977Z,3.50
2017-09-12T09:50:22.526Z,3.30
2017-09-12T09:52:50.077Z,3.60
2017-09-12T09:55:17.655Z,3.60
2017-09-12T09:57:45.202Z,3.53
2017-09-12T10:00:13.524Z,3.00
2017-09-12T10:02:41.886Z,3.63
2017-09-12T10:05:09.430Z,3.37
2017-09-12T10:07:36.977Z,4.03
2017-09-12T10:10:05.307Z,3.80
2017-09-12T10:12:33.630Z,3.93
2017-09-12T10:15:01.158Z,3.13
2017-09-12T10:17:28.734Z,3.13
2017-09-12T10:19:56.272Z,3.37
2017-09-12T10:22:24.580Z,2.70
2017-09-12T10:24:52.157Z,3.43
2017-09-12T10:27:19.689Z,2.77
2017-09-12T10:29:47.225Z,2.63
2017-09-12T10:32:15.585Z,2.37
2017-09-12T10:34:43.892Z,2.73
2017-09-12T10:37:12.202Z,2.50
2017-09-12T10:39:39.765Z,2.10
2017-09-12T10:42:07.290Z,2.60
2017-09-12T10:44:35.580Z,2.60
2017-09-12T10:47:03.934Z,3.50
2017-09-12T10:49:31.488Z,2.77
2017-09-12T10:51:59.012Z,2.50
2017-09-12T10:54:26.565Z,2.90
2017-09-12T10:56:54.091Z,2.40
2017-09-12T10:59:21.679Z,3.00
2017-09-12T11:01:49.232Z,2.63
2017-09-12T11:04:17.548Z,2.70
2017-09-12T11:06:45.106Z,2.23
2017-09-12T11:09:12.644Z,2.10
2017-09-12T11:11:40.186Z,2.80
2017-09-12T11:14:08.506Z,3.10
2017-09-12T11:16:36.048Z,3.17
2017-09-12T11:19:03.602Z,2.43
2017-09-12T11:21:31.939Z,3.17
2017-09-12T11:24:00.249Z,2.17
2017-09-12T11:26:28.560Z,2.13
2017-09-12T11:28:56.133Z,2.47
2017-09-12T11:31:23.679Z,2.53
2017-09-12T11:33:51.209Z,2.00
2017-09-12T11:36:19.536Z,1.93
2017-09-12T11:38:47.071Z,1.77
2017-09-12T11:41:14.618Z,2.20
2017-09-12T11:43:42.966Z,2.37
2017-09-12T11:46:10.520Z,2.07
2017-09-12T11:48:38.047Z,2.80
2017-09-12T11:51:05.625Z,2.53
2017-09-12T11:53:33.177Z,2.03
2017-09-12T11:56:00.710Z,2.20
2017-09-12T11:58:29.039Z,2.30
2017-09-12T12:00:56.567Z,2.00
2017-09-12T12:03:24.096Z,1.60
2017-09-12T12:05:51.658Z,2.33
2017-09-12T12:08:19.190Z,2.27
2017-09-12T12:10:46.716Z,1.93
2017-09-12T12:13:14.289Z,2.40
2017-09-12T12:15:41.839Z,1.70
2017-09-12T12:18:09.388Z,1.77
2017-09-12T12:20:37.722Z,1.87
2017-09-12T12:23:05.285Z,1.90
2017-09-12T12:25:32.865Z,1.70
2017-09-12T12:28:00.459Z,1.97
2017-09-12T12:30:28.046Z,2.10
2017-09-12T12:32:55.617Z,2.00
2017-09-12T12:35:23.208Z,1.83
2017-09-12T12:37:50.806Z,2.30
2017-09-12T12:40:18.380Z,1.93
2017-09-12T12:42:45.989Z,2.23
2017-09-12T12:45:13.570Z,2.10
2017-09-12T12:47:41.894Z,1.70
2017-09-12T12:50:09.495Z,1.40
2017-09-12T12:52:37.053Z,2.13
2017-09-12T12:55:04.614Z,1.83
2017-09-12T12:57:32.208Z,1.67
2017-09-12T13:00:00.548Z,2.10
2017-09-12T13:02:28.169Z,1.43
2017-09-12T13:04:55.743Z,1.90
2017-09-12T13:07:23.305Z,1.63
2017-09-12T13:09:50.930Z,1.40
2017-09-12T13:12:19.271Z,1.57
2017-09-12T13:14:46.860Z,2.03
2017-09-12T13:17:14.467Z,1.53
2017-09-12T13:19:42.066Z,2.10
2017-09-12T13:22:10.399Z,2.67
2017-09-12T13:24:38.013Z,2.20
2017-09-12T13:27:05.602Z,2.57
2017-09-12T13:29:33.967Z,2.77
2017-09-12T13:32:01.589Z,2.27
2017-09-12T13:34:29.145Z,4.00
2017-09-12T13:36:56.701Z,1.90
2017-09-12T13:39:24.312Z,2.93
2017-09-12T13:41:51.860Z,2.07
2017-09-12T13:44:19.441Z,2.50
2017-09-12T13:46:47.051Z,3.40
2017-09-12T13:49:14.605Z,2.70
2017-09-12T13:51:42.190Z,3.30
2017-09-12T13:54:09.799Z,3.90
2017-09-12T13:56:38.170Z,2.73
2017-09-12T13:59:05.726Z,3.57
2017-09-12T14:01:33.324Z,2.90
2017-09-12T14:04:01.667Z,1.93
2017-09-12T14:06:29.247Z,2.97
2017-09-12T14:08:56.867Z,2.30
2017-09-12T14:11:24.448Z,1.73
2017-09-12T14:13:52.020Z,1.83
2017-09-12T14:16:19.609Z,2.13
2017-09-12T14:18:47.948Z,2.17
2017-09-12T14:21:15.520Z,1.70
2017-09-12T14:23:43.137Z,1.60
2017-09-12T14:26:10.693Z,2.73
2017-09-12T14:28:38.268Z,1.73
2017-09-12T14:31:05.868Z,1.83
2017-09-12T14:33:33.453Z,2.00
2017-09-12T14:36:01.046Z,1.50
2017-09-12T14:38:28.662Z,1.50
2017-09-12T14:40:56.247Z,2.50
2017-09-12T14:43:24.612Z,1.70
2017-09-12T14:45:52.195Z,1.80
2017-09-12T14:48:20.535Z,1.73
2017-09-12T14:50:48.149Z,2.00
2017-09-12T14:53:16.485Z,4.97
2017-09-12T14:55:44.064Z,1.60
2017-09-12T14:58:11.647Z,1.30
2017-09-12T15:00:39.974Z,1.70
2017-09-12T15:03:07.591Z,1.97
2017-09-12T15:05:35.950Z,1.23
2017-09-12T15:08:03.536Z,1.83
2017-09-12T15:10:31.900Z,1.53
2017-09-12T15:12:59.514Z,1.30
2017-09-12T15:15:27.101Z,1.43
2017-09-12T15:17:54.703Z,1.27
2017-09-12T15:20:23.034Z,1.50
2017-09-12T15:22:50.609Z,2.00
2017-09-12T15:25:18.229Z,1.77
2017-09-12T15:27:45.811Z,2.83
2017-09-12T15:30:13.373Z,2.30
2017-09-12T15:32:40.969Z,2.10
2017-09-12T15:35:08.561Z,1.83
2017-09-12T15:37:36.903Z,1.90
2017-09-12T15:40:04.503Z,2.13
2017-09-12T15:42:32.082Z,1.80
2017-09-12T15:44:59.660Z,1.73
2017-09-12T15:47:27.271Z,1.87
2017-09-12T15:49:54.860Z,1.77
2017-09-12T15:52:22.426Z,1.83
2017-09-12T15:54:50.038Z,1.50
2017-09-12T15:57:17.728Z,1.90
2017-09-12T15:59:46.075Z,1.43
2017-09-12T16:02:13.747Z,2.00
2017-09-12T16:04:41.331Z,2.20
2017-09-12T16:07:09.671Z,1.90
2017-09-12T16:09:37.264Z,1.63
2017-09-12T16:12:04.849Z,1.90
2017-09-12T16:14:33.194Z,2.33
2017-09-12T16:17:00.789Z,1.80
2017-09-12T16:19:29.126Z,2.00
2017-09-12T16:21:56.680Z,2.40
2017-09-12T16:24:24.307Z,2.13
2017-09-12T16:26:51.878Z,2.23
2017-09-12T16:29:19.447Z,2.00
2017-09-12T16:31:47.056Z,1.83
2017-09-12T16:34:14.621Z,1.80
2017-09-12T16:36:42.182Z,1.97
2017-09-12T16:39:09.795Z,1.90
2017-09-12T16:41:37.367Z,1.80
2017-09-12T16:44:04.954Z,1.80
2017-09-12T16:46:32.568Z,2.03
2017-09-12T16:49:00.180Z,2.60
2017-09-12T16:51:27.745Z,1.70
2017-09-12T16:53:55.346Z,1.87
2017-09-12T16:56:23.706Z,2.00
2017-09-12T16:58:51.290Z,1.63
2017-09-12T17:01:19.646Z,3.13
2017-09-12T17:03:47.239Z,1.60
2017-09-12T17:06:14.806Z,1.80
2017-09-12T17:08:42.502Z,1.50
2017-09-12T17:11:10.086Z,1.70
2017-09-12T17:13:37.697Z,2.17
2017-09-12T17:16:05.304Z,2.80
2017-09-12T17:18:32.993Z,2.50
2017-09-12T17:21:01.354Z,2.20
2017-09-12T17:23:29.470Z,1.87
2017-09-12T17:25:57.824Z,2.60
2017-09-12T17:28:25.401Z,2.50
2017-09-12T17:30:53.780Z,2.50
2017-09-12T17:33:22.142Z,2.53
2017-09-12T17:35:49.738Z,2.50
2017-09-12T17:38:18.130Z,2.67
2017-09-12T17:40:45.726Z,2.23
2017-09-12T17:43:13.325Z,3.17
2017-09-12T17:45:40.929Z,2.47
2017-09-12T17:48:08.507Z,2.57
2017-09-12T17:50:36.128Z,3.33
2017-09-12T17:53:04.521Z,2.27
2017-09-12T17:55:32.119Z,2.00
2017-09-12T17:57:59.695Z,2.80
2017-09-12T18:00:27.310Z,3.17
2017-09-12T18:02:54.868Z,2.77
2017-09-12T18:05:23.205Z,2.67
2017-09-12T18:07:50.795Z,2.77
2017-09-12T18:10:19.140Z,2.30
2017-09-12T18:12:46.697Z,3.23
2017-09-12T18:15:14.296Z,2.97
2017-09-12T18:17:42.644Z,3.07
2017-09-12T18:20:10.233Z,3.00
2017-09-12T18:22:37.811Z,5.20
2017-09-12T18:25:06.169Z,2.20
2017-09-12T18:27:33.764Z,3.53
2017-09-12T18:30:02.105Z,7.30
2017-09-12T18:32:29.690Z,12.43
2017-09-12T18:34:58.067Z,9.07
2017-09-12T18:37:26.414Z,7.40
2017-09-12T18:39:53.990Z,4.83
2017-09-12T18:42:21.607Z,3.63
2017-09-12T18:44:49.206Z,13.77
2017-09-12T18:47:16.777Z,12.00
2017-09-12T18:49:44.402Z,9.03
2017-09-12T18:52:11.984Z,8.43
2017-09-12T18:54:39.587Z,5.43
2017-09-12T18:57:07.939Z,7.20
2017-09-12T18:59:35.522Z,6.63
2017-09-12T19:02:03.123Z,9.10
2017-09-12T19:04:30.713Z,13.77
2017-09-12T19:06:58.311Z,17.60
2017-09-12T19:09:25.890Z,11.30
2017-09-12T19:11:54.263Z,8.47
2017-09-12T19:14:22.615Z,6.30
2017-09-12T19:16:50.209Z,5.30
2017-09-12T19:19:18.618Z,4.30
2017-09-12T19:21:46.215Z,3.50
2017-09-12T19:24:13.788Z,3.77
2017-09-12T19:26:41.397Z,4.50
2017-09-12T19:29:08.989Z,4.37
2017-09-12T19:31:36.578Z,4.27
2017-09-12T19:34:04.198Z,4.77
2017-09-12T19:36:31.784Z,4.23
2017-09-12T19:38:59.364Z,4.00
2017-09-12T19:41:26.989Z,4.17
2017-09-12T19:43:54.578Z,5.30
2017-09-12T19:46:22.160Z,3.10
2017-09-12T19:48:49.776Z,4.83
2017-09-12T19:51:17.369Z,4.00
2017-09-12T19:53:44.934Z,3.20
2017-09-12T19:56:12.549Z,3.97
2017-09-12T19:58:40.120Z,4.17
2017-09-12T20:01:07.707Z,4.63
2017-09-12T20:03:35.319Z,4.80
2017-09-12T20:06:03.687Z,16.13
2017-09-12T20:08:31.307Z,81.80
2017-09-12T20:10:58.916Z,32.43
2017-09-12T20:13:26.482Z,9.63
2017-09-12T20:15:54.849Z,6.77
2017-09-12T20:18:22.475Z,5.70
2017-09-12T20:20:50.061Z,5.57
2017-09-12T20:23:17.629Z,5.70
2017-09-12T20:25:45.217Z,4.87
2017-09-12T20:28:13.773Z,5.20
2017-09-12T20:30:41.352Z,4.50
2017-09-12T20:33:09.010Z,4.40
2017-09-12T20:35:36.602Z,4.25
2017-09-12T20:38:04.996Z,3.50
2017-09-12T20:40:32.609Z,3.80
2017-09-12T20:43:00.177Z,7.47
2017-09-12T20:45:27.774Z,23.13
2017-09-12T20:47:56.171Z,45.27
2017-09-12T20:50:23.757Z,37.50
2017-09-12T20:52:51.403Z,21.23
2017-09-12T20:55:19.139Z,6.20
2017-09-12T20:57:47.487Z,10.30
2017-09-12T21:00:15.098Z,4.70
2017-09-12T21:02:42.734Z,3.40
2017-09-12T21:05:11.121Z,3.33
2017-09-12T21:07:39.472Z,3.30
2017-09-12T21:10:07.080Z,2.73
2017-09-12T21:12:34.683Z,2.80
2017-09-12T21:15:02.254Z,2.83
2017-09-12T21:17:30.642Z,3.07
2017-09-12T21:19:58.215Z,3.60
2017-09-12T21:22:25.810Z,3.43
2017-09-12T21:24:53.425Z,3.27
2017-09-12T21:27:21.003Z,3.13
2017-09-12T21:29:48.565Z,3.43
2017-09-12T21:32:16.158Z,4.87
2017-09-12T21:34:44.513Z,3.90
2017-09-12T21:37:12.095Z,4.53
2017-09-12T21:39:39.742Z,4.50
2017-09-12T21:42:08.091Z,3.80
2017-09-12T21:44:35.669Z,3.87
2017-09-12T21:47:03.317Z,4.20
2017-09-12T21:49:30.892Z,3.60
2017-09-12T21:51:58.469Z,4.03
2017-09-12T21:54:26.097Z,4.40
2017-09-12T21:56:53.671Z,3.90
2017-09-12T21:59:21.230Z,4.60
2017-09-12T22:01:48.828Z,5.07
2017-09-12T22:04:17.159Z,4.50
2017-09-12T22:06:44.735Z,6.03
2017-09-12T22:09:12.322Z,5.13
2017-09-12T22:11:39.903Z,5.50
2017-09-12T22:14:08.228Z,5.50
2017-09-12T22:16:35.820Z,6.37
2017-09-12T22:19:03.413Z,5.20
2017-09-12T22:21:31.767Z,7.13
2017-09-12T22:23:59.379Z,4.90
2017-09-12T22:26:26.961Z,5.17
2017-09-12T22:28:54.537Z,4.73
2017-09-12T22:31:22.130Z,3.70
2017-09-12T22:33:50.474Z,3.60
2017-09-12T22:36:18.057Z,3.63
2017-09-12T22:38:45.670Z,4.20
2017-09-12T22:41:13.252Z,3.87
2017-09-12T22:43:40.849Z,3.33
2017-09-12T22:46:08.463Z,4.23
2017-09-12T22:48:36.043Z,4.30
2017-09-12T22:51:03.601Z,3.97
2017-09-12T22:53:31.219Z,5.07
2017-09-12T22:55:59.541Z,4.23
2017-09-12T22:58:27.121Z,3.80
2017-09-12T23:00:54.738Z,3.30
2017-09-12T23:03:22.328Z,3.30
2017-09-12T23:05:49.887Z,2.60
2017-09-12T23:08:17.487Z,2.07
2017-09-12T23:10:45.069Z,1.90
2017-09-12T23:13:13.425Z,2.20
2017-09-12T23:15:41.043Z,2.60
2017-09-12T23:18:08.625Z,2.87
2017-09-12T23:20:36.219Z,2.20
2017-09-12T23:23:03.849Z,2.53
2017-09-12T23:25:31.418Z,2.63
2017-09-12T23:27:59.001Z,2.77
2017-09-12T23:30:26.598Z,2.20
2017-09-12T23:32:54.949Z,3.00
2017-09-12T23:35:22.528Z,2.43
2017-09-12T23:37:50.892Z,3.20
2017-09-12T23:40:18.458Z,2.40
2017-09-12T23:42:46.018Z,2.70
2017-09-12T23:45:13.618Z,2.43
2017-09-12T23:47:41.194Z,3.10
2017-09-12T23:50:08.779Z,2.40
2017-09-12T23:52:36.402Z,2.50
2017-09-12T23:55:03.985Z,2.93
2017-09-12T23:57:31.562Z,2.97
2017-09-12T23:59:59.186Z,2.10
